Almond, New York
Current Conditions -  °F | °C
As of 5:54 PM on Thursday 23 Oct 2014 (Local Time) from KDSV Reporting Station
Overcast Overcast  
Wind Chill: 13°   Ceiling: 5000
Heat Index: 13°   Visibility: 10mi
Dew Point:   Wind: 13mph
Humidity: 55%   Direction: 330°NNW
Pressure: 29.99"   Gusts: NA
Location:  42.32°N, 77.74°W
Report Text: KDSV 232154Z AUTO 33011KT 10SM OVC050 13/04 A2999 RMK AO2 SLP167 T01330044
Loading
Personal Weather Stations






























Interactive Weather Map New forecast layout! Learn more

10-Day Weather Forecast

Advertisements
Track Severe Weather on mobile